sensor_id;sensor_type;location;lat;lon;timestamp;pressure;altitude;pressure_sealevel;temperature;humidity
36190;BME280;22232;50.914;13.858;2024-03-08T00:00:14;98327.25;;;0.50;100.00
36190;BME280;22232;50.914;13.858;2024-03-08T00:02:45;98319.06;;;0.53;100.00
36190;BME280;22232;50.914;13.858;2024-03-08T00:05:14;98314.50;;;0.55;100.00
36190;BME280;22232;50.914;13.858;2024-03-08T00:07:42;98313.50;;;0.56;100.00
36190;BME280;22232;50.914;13.858;2024-03-08T00:10:12;98315.63;;;0.53;100.00
36190;BME280;22232;50.914;13.858;2024-03-08T00:12:44;98313.97;;;0.52;100.00
36190;BME280;22232;50.914;13.858;2024-03-08T00:15:14;98313.94;;;0.43;100.00
36190;BME280;22232;50.914;13.858;2024-03-08T00:17:44;98314.56;;;0.45;100.00
36190;BME280;22232;50.914;13.858;2024-03-08T00:20:12;98312.16;;;0.26;100.00
36190;BME280;22232;50.914;13.858;2024-03-08T00:22:41;98315.19;;;0.13;100.00
36190;BME280;22232;50.914;13.858;2024-03-08T00:25:09;98313.91;;;-0.01;100.00
36190;BME280;22232;50.914;13.858;2024-03-08T00:27:37;98311.28;;;-0.01;100.00
36190;BME280;22232;50.914;13.858;2024-03-08T00:30:06;98307.16;;;-0.03;100.00
36190;BME280;22232;50.914;13.858;2024-03-08T00:32:34;98316.81;;;-0.04;100.00
36190;BME280;22232;50.914;13.858;2024-03-08T00:35:02;98309.03;;;-0.13;100.00
36190;BME280;22232;50.914;13.858;2024-03-08T00:37:29;98317.00;;;-0.23;100.00
36190;BME280;22232;50.914;13.858;2024-03-08T00:39:57;98317.19;;;-0.34;100.00
36190;BME280;22232;50.914;13.858;2024-03-08T00:42:24;98318.78;;;-0.41;100.00
36190;BME280;22232;50.914;13.858;2024-03-08T00:44:52;98315.75;;;-0.47;100.00
36190;BME280;22232;50.914;13.858;2024-03-08T00:47:20;98308.59;;;-0.44;100.00
36190;BME280;22232;50.914;13.858;2024-03-08T00:49:47;98305.69;;;-0.41;100.00
36190;BME280;22232;50.914;13.858;2024-03-08T00:52:14;98302.81;;;-0.48;100.00
36190;BME280;22232;50.914;13.858;2024-03-08T00:54:42;98298.41;;;-0.48;100.00
36190;BME280;22232;50.914;13.858;2024-03-08T00:57:11;98295.56;;;-0.36;100.00
36190;BME280;22232;50.914;13.858;2024-03-08T00:59:39;98302.38;;;-0.43;100.00
36190;BME280;22232;50.914;13.858;2024-03-08T01:02:07;98292.66;;;-0.51;100.00
36190;BME280;22232;50.914;13.858;2024-03-08T01:04:36;98291.97;;;-0.53;100.00
36190;BME280;22232;50.914;13.858;2024-03-08T01:07:03;98294.75;;;-0.55;100.00
36190;BME280;22232;50.914;13.858;2024-03-08T01:09:31;98289.34;;;-0.53;100.00
36190;BME280;22232;50.914;13.858;2024-03-08T01:11:59;98288.53;;;-0.54;100.00
36190;BME280;22232;50.914;13.858;2024-03-08T01:14:27;98282.16;;;-0.51;100.00
36190;BME280;22232;50.914;13.858;2024-03-08T01:16:56;98285.13;;;-0.46;100.00
36190;BME280;22232;50.914;13.858;2024-03-08T01:19:23;98283.38;;;-0.45;100.00
36190;BME280;22232;50.914;13.858;2024-03-08T01:21:51;98278.72;;;-0.52;100.00
36190;BME280;22232;50.914;13.858;2024-03-08T01:24:19;98276.25;;;-0.53;100.00
36190;BME280;22232;50.914;13.858;2024-03-08T01:26:47;98269.41;;;-0.46;100.00
36190;BME280;22232;50.914;13.858;2024-03-08T01:29:15;98271.75;;;-0.43;100.00
36190;BME280;22232;50.914;13.858;2024-03-08T01:31:42;98277.28;;;-0.46;100.00
36190;BME280;22232;50.914;13.858;2024-03-08T01:34:10;98263.66;;;-0.50;100.00
36190;BME280;22232;50.914;13.858;2024-03-08T01:36:37;98262.53;;;-0.47;100.00
36190;BME280;22232;50.914;13.858;2024-03-08T01:39:05;98249.81;;;-0.42;100.00
36190;BME280;22232;50.914;13.858;2024-03-08T01:41:35;98246.22;;;-0.41;100.00
36190;BME280;22232;50.914;13.858;2024-03-08T01:44:03;98252.97;;;-0.38;100.00
36190;BME280;22232;50.914;13.858;2024-03-08T01:46:31;98252.75;;;-0.45;100.00
36190;BME280;22232;50.914;13.858;2024-03-08T01:48:59;98249.44;;;-0.47;100.00
36190;BME280;22232;50.914;13.858;2024-03-08T01:51:29;98244.13;;;-0.55;100.00
36190;BME280;22232;50.914;13.858;2024-03-08T01:54:01;98244.41;;;-0.58;100.00
36190;BME280;22232;50.914;13.858;2024-03-08T01:56:29;98232.38;;;-0.69;100.00
36190;BME280;22232;50.914;13.858;2024-03-08T01:58:59;98236.41;;;-0.57;100.00
36190;BME280;22232;50.914;13.858;2024-03-08T02:01:27;98229.75;;;-0.51;100.00
36190;BME280;22232;50.914;13.858;2024-03-08T02:03:56;98231.09;;;-0.47;100.00
36190;BME280;22232;50.914;13.858;2024-03-08T02:06:23;98242.69;;;-0.50;100.00
36190;BME280;22232;50.914;13.858;2024-03-08T02:08:51;98231.41;;;-0.50;100.00
36190;BME280;22232;50.914;13.858;2024-03-08T02:11:19;98227.13;;;-0.51;100.00
36190;BME280;22232;50.914;13.858;2024-03-08T02:13:48;98229.06;;;-0.53;100.00
36190;BME280;22232;50.914;13.858;2024-03-08T02:16:21;98226.91;;;-0.58;100.00
36190;BME280;22232;50.914;13.858;2024-03-08T02:18:49;98228.69;;;-0.58;100.00
36190;BME280;22232;50.914;13.858;2024-03-08T02:21:18;98220.84;;;-0.58;100.00
36190;BME280;22232;50.914;13.858;2024-03-08T02:23:46;98220.69;;;-0.57;100.00
36190;BME280;22232;50.914;13.858;2024-03-08T02:26:14;98219.59;;;-0.54;100.00
36190;BME280;22232;50.914;13.858;2024-03-08T02:28:41;98221.97;;;-0.61;100.00
36190;BME280;22232;50.914;13.858;2024-03-08T02:31:11;98208.63;;;-0.67;100.00
36190;BME280;22232;50.914;13.858;2024-03-08T02:33:39;98220.22;;;-0.70;100.00
36190;BME280;22232;50.914;13.858;2024-03-08T02:36:07;98211.84;;;-0.74;100.00
36190;BME280;22232;50.914;13.858;2024-03-08T02:38:35;98212.44;;;-0.80;100.00
36190;BME280;22232;50.914;13.858;2024-03-08T02:41:02;98217.16;;;-0.83;100.00
36190;BME280;22232;50.914;13.858;2024-03-08T02:43:31;98215.53;;;-0.84;100.00
36190;BME280;22232;50.914;13.858;2024-03-08T02:45:58;98211.78;;;-0.82;100.00
36190;BME280;22232;50.914;13.858;2024-03-08T02:48:27;98213.56;;;-0.82;100.00
36190;BME280;22232;50.914;13.858;2024-03-08T02:50:54;98208.63;;;-0.85;100.00
36190;BME280;22232;50.914;13.858;2024-03-08T02:53:22;98208.19;;;-0.81;100.00
36190;BME280;22232;50.914;13.858;2024-03-08T02:55:50;98204.22;;;-0.85;100.00
36190;BME280;22232;50.914;13.858;2024-03-08T02:58:17;98204.38;;;-0.86;100.00
36190;BME280;22232;50.914;13.858;2024-03-08T03:00:45;98201.63;;;-0.85;100.00
36190;BME280;22232;50.914;13.858;2024-03-08T03:03:13;98207.97;;;-0.87;100.00
36190;BME280;22232;50.914;13.858;2024-03-08T03:05:40;98195.63;;;-0.77;100.00
36190;BME280;22232;50.914;13.858;2024-03-08T03:08:15;98194.59;;;-0.66;100.00
36190;BME280;22232;50.914;13.858;2024-03-08T03:10:44;98201.97;;;-0.62;100.00
36190;BME280;22232;50.914;13.858;2024-03-08T03:13:13;98194.63;;;-0.58;100.00
36190;BME280;22232;50.914;13.858;2024-03-08T03:15:41;98205.13;;;-0.58;100.00
36190;BME280;22232;50.914;13.858;2024-03-08T03:18:09;98201.06;;;-0.53;100.00
36190;BME280;22232;50.914;13.858;2024-03-08T03:20:37;98194.03;;;-0.52;100.00
36190;BME280;22232;50.914;13.858;2024-03-08T03:23:09;98192.88;;;-0.58;100.00
36190;BME280;22232;50.914;13.858;2024-03-08T03:25:36;98191.66;;;-0.63;100.00
36190;BME280;22232;50.914;13.858;2024-03-08T03:28:06;98185.59;;;-0.64;100.00
36190;BME280;22232;50.914;13.858;2024-03-08T03:30:35;98187.25;;;-0.63;100.00
36190;BME280;22232;50.914;13.858;2024-03-08T03:33:03;98189.88;;;-0.63;100.00
36190;BME280;22232;50.914;13.858;2024-03-08T03:35:35;98194.94;;;-0.61;100.00
36190;BME280;22232;50.914;13.858;2024-03-08T03:38:04;98185.44;;;-0.62;100.00
36190;BME280;22232;50.914;13.858;2024-03-08T03:40:39;98184.75;;;-0.64;100.00
36190;BME280;22232;50.914;13.858;2024-03-08T03:43:09;98184.16;;;-0.58;100.00
36190;BME280;22232;50.914;13.858;2024-03-08T03:45:39;98181.53;;;-0.58;100.00
36190;BME280;22232;50.914;13.858;2024-03-08T03:48:09;98184.69;;;-0.55;100.00
36190;BME280;22232;50.914;13.858;2024-03-08T03:50:38;98176.91;;;-0.64;100.00
36190;BME280;22232;50.914;13.858;2024-03-08T03:53:08;98183.81;;;-0.63;100.00
36190;BME280;22232;50.914;13.858;2024-03-08T03:55:37;98178.47;;;-0.72;100.00
36190;BME280;22232;50.914;13.858;2024-03-08T03:58:08;98173.53;;;-0.75;100.00
36190;BME280;22232;50.914;13.858;2024-03-08T04:00:38;98176.91;;;-0.82;100.00
36190;BME280;22232;50.914;13.858;2024-03-08T04:03:06;98168.81;;;-0.89;100.00
36190;BME280;22232;50.914;13.858;2024-03-08T04:05:35;98179.38;;;-0.81;100.00
36190;BME280;22232;50.914;13.858;2024-03-08T04:08:02;98172.25;;;-0.71;100.00
36190;BME280;22232;50.914;13.858;2024-03-08T04:10:30;98173.69;;;-0.58;100.00
36190;BME280;22232;50.914;13.858;2024-03-08T04:12:58;98179.91;;;-0.59;100.00
36190;BME280;22232;50.914;13.858;2024-03-08T04:15:25;98172.72;;;-0.75;100.00
36190;BME280;22232;50.914;13.858;2024-03-08T04:17:53;98175.34;;;-0.75;100.00
36190;BME280;22232;50.914;13.858;2024-03-08T04:20:21;98167.56;;;-0.85;100.00
36190;BME280;22232;50.914;13.858;2024-03-08T04:22:49;98167.91;;;-0.80;100.00
36190;BME280;22232;50.914;13.858;2024-03-08T04:25:17;98166.28;;;-0.81;100.00
36190;BME280;22232;50.914;13.858;2024-03-08T04:27:45;98169.28;;;-0.76;100.00
36190;BME280;22232;50.914;13.858;2024-03-08T04:30:12;98155.91;;;-0.73;100.00
36190;BME280;22232;50.914;13.858;2024-03-08T04:32:40;98165.69;;;-0.75;100.00
36190;BME280;22232;50.914;13.858;2024-03-08T04:35:09;98155.00;;;-0.81;100.00
36190;BME280;22232;50.914;13.858;2024-03-08T04:37:36;98157.41;;;-0.88;100.00
36190;BME280;22232;50.914;13.858;2024-03-08T04:40:04;98161.13;;;-0.90;100.00
36190;BME280;22232;50.914;13.858;2024-03-08T04:42:33;98163.88;;;-0.92;100.00
36190;BME280;22232;50.914;13.858;2024-03-08T04:45:01;98159.47;;;-0.92;100.00
36190;BME280;22232;50.914;13.858;2024-03-08T04:47:28;98162.75;;;-0.89;100.00
36190;BME280;22232;50.914;13.858;2024-03-08T04:49:56;98156.84;;;-0.92;100.00
36190;BME280;22232;50.914;13.858;2024-03-08T04:52:25;98154.81;;;-0.98;100.00
36190;BME280;22232;50.914;13.858;2024-03-08T04:54:53;98153.88;;;-0.97;100.00
36190;BME280;22232;50.914;13.858;2024-03-08T04:57:20;98151.38;;;-0.98;100.00
36190;BME280;22232;50.914;13.858;2024-03-08T04:59:48;98144.50;;;-0.99;100.00
36190;BME280;22232;50.914;13.858;2024-03-08T05:02:16;98147.56;;;-1.04;100.00
36190;BME280;22232;50.914;13.858;2024-03-08T05:04:44;98150.19;;;-1.04;100.00
36190;BME280;22232;50.914;13.858;2024-03-08T05:07:12;98149.38;;;-1.04;100.00
36190;BME280;22232;50.914;13.858;2024-03-08T05:09:39;98145.34;;;-0.81;100.00
36190;BME280;22232;50.914;13.858;2024-03-08T05:12:08;98143.09;;;-0.76;100.00
36190;BME280;22232;50.914;13.858;2024-03-08T05:14:35;98146.16;;;-0.80;100.00
36190;BME280;22232;50.914;13.858;2024-03-08T05:17:03;98145.94;;;-0.87;100.00
36190;BME280;22232;50.914;13.858;2024-03-08T05:19:36;98146.16;;;-0.98;100.00
36190;BME280;22232;50.914;13.858;2024-03-08T05:22:03;98144.34;;;-0.98;100.00
36190;BME280;22232;50.914;13.858;2024-03-08T05:24:31;98141.69;;;-1.06;100.00
36190;BME280;22232;50.914;13.858;2024-03-08T05:26:59;98142.78;;;-1.08;100.00
36190;BME280;22232;50.914;13.858;2024-03-08T05:29:28;98136.22;;;-1.12;100.00
36190;BME280;22232;50.914;13.858;2024-03-08T05:31:56;98139.78;;;-1.13;100.00
36190;BME280;22232;50.914;13.858;2024-03-08T05:34:25;98134.25;;;-1.10;100.00
36190;BME280;22232;50.914;13.858;2024-03-08T05:36:56;98142.59;;;-0.97;100.00
36190;BME280;22232;50.914;13.858;2024-03-08T05:39:25;98140.78;;;-0.79;100.00
36190;BME280;22232;50.914;13.858;2024-03-08T05:41:52;98136.56;;;-0.72;100.00
36190;BME280;22232;50.914;13.858;2024-03-08T05:44:22;98127.28;;;-0.66;100.00
36190;BME280;22232;50.914;13.858;2024-03-08T05:46:50;98131.09;;;-0.60;100.00
36190;BME280;22232;50.914;13.858;2024-03-08T05:49:18;98136.75;;;-0.47;100.00
36190;BME280;22232;50.914;13.858;2024-03-08T05:51:45;98129.63;;;-0.37;100.00
36190;BME280;22232;50.914;13.858;2024-03-08T05:54:15;98129.56;;;-0.19;100.00
36190;BME280;22232;50.914;13.858;2024-03-08T05:56:46;98137.19;;;0.18;100.00
36190;BME280;22232;50.914;13.858;2024-03-08T05:59:15;98123.84;;;0.54;100.00
36190;BME280;22232;50.914;13.858;2024-03-08T06:01:42;98130.16;;;0.78;100.00
36190;BME280;22232;50.914;13.858;2024-03-08T06:04:10;98139.06;;;0.93;100.00
36190;BME280;22232;50.914;13.858;2024-03-08T06:06:39;98135.31;;;1.04;100.00
36190;BME280;22232;50.914;13.858;2024-03-08T06:09:07;98136.78;;;1.14;100.00
36190;BME280;22232;50.914;13.858;2024-03-08T06:11:45;98139.09;;;1.42;100.00
36190;BME280;22232;50.914;13.858;2024-03-08T06:14:13;98139.09;;;1.67;98.42
36190;BME280;22232;50.914;13.858;2024-03-08T06:16:40;98138.44;;;1.89;96.60
36190;BME280;22232;50.914;13.858;2024-03-08T06:19:07;98140.69;;;2.00;92.73
36190;BME280;22232;50.914;13.858;2024-03-08T06:21:35;98133.25;;;2.20;92.54
36190;BME280;22232;50.914;13.858;2024-03-08T06:24:03;98137.91;;;2.49;89.87
36190;BME280;22232;50.914;13.858;2024-03-08T06:26:31;98128.97;;;2.59;87.96
36190;BME280;22232;50.914;13.858;2024-03-08T06:29:01;98125.19;;;2.92;85.81
36190;BME280;22232;50.914;13.858;2024-03-08T06:31:28;98123.97;;;3.03;84.37
36190;BME280;22232;50.914;13.858;2024-03-08T06:33:56;98122.56;;;3.15;83.68
36190;BME280;22232;50.914;13.858;2024-03-08T06:36:24;98119.06;;;3.23;83.01
36190;BME280;22232;50.914;13.858;2024-03-08T06:38:52;98122.81;;;3.29;82.85
36190;BME280;22232;50.914;13.858;2024-03-08T06:41:20;98115.16;;;3.34;82.55
36190;BME280;22232;50.914;13.858;2024-03-08T06:43:47;98120.50;;;3.49;81.71
36190;BME280;22232;50.914;13.858;2024-03-08T06:46:16;98115.91;;;3.65;81.14
36190;BME280;22232;50.914;13.858;2024-03-08T06:48:44;98105.91;;;3.76;79.30
36190;BME280;22232;50.914;13.858;2024-03-08T06:51:13;98115.84;;;3.88;78.90
36190;BME280;22232;50.914;13.858;2024-03-08T06:53:42;98118.06;;;4.14;79.97
36190;BME280;22232;50.914;13.858;2024-03-08T06:56:09;98112.84;;;4.21;79.16
36190;BME280;22232;50.914;13.858;2024-03-08T06:58:37;98113.69;;;4.22;79.12
36190;BME280;22232;50.914;13.858;2024-03-08T07:01:04;98124.06;;;4.08;79.93
36190;BME280;22232;50.914;13.858;2024-03-08T07:03:35;98108.22;;;4.23;77.62
36190;BME280;22232;50.914;13.858;2024-03-08T07:06:03;98115.66;;;4.20;79.63
36190;BME280;22232;50.914;13.858;2024-03-08T07:08:35;98113.38;;;4.31;78.22
36190;BME280;22232;50.914;13.858;2024-03-08T07:11:02;98100.91;;;4.55;77.92
36190;BME280;22232;50.914;13.858;2024-03-08T07:13:31;98098.78;;;4.65;78.73
36190;BME280;22232;50.914;13.858;2024-03-08T07:15:58;98095.06;;;4.59;76.96
36190;BME280;22232;50.914;13.858;2024-03-08T07:18:28;98099.84;;;4.71;76.15
36190;BME280;22232;50.914;13.858;2024-03-08T07:20:58;98094.94;;;4.68;76.50
36190;BME280;22232;50.914;13.858;2024-03-08T07:23:26;98096.53;;;4.83;77.16
36190;BME280;22232;50.914;13.858;2024-03-08T07:26:15;98101.72;;;4.92;77.40
36190;BME280;22232;50.914;13.858;2024-03-08T07:28:44;98090.97;;;4.93;78.69
36190;BME280;22232;50.914;13.858;2024-03-08T07:31:11;98086.69;;;4.92;78.74
36190;BME280;22232;50.914;13.858;2024-03-08T07:33:41;98096.91;;;4.80;76.88
36190;BME280;22232;50.914;13.858;2024-03-08T07:36:09;98088.97;;;4.80;79.33
36190;BME280;22232;50.914;13.858;2024-03-08T07:38:36;98092.47;;;4.81;79.47
36190;BME280;22232;50.914;13.858;2024-03-08T07:41:04;98086.78;;;4.63;80.69
36190;BME280;22232;50.914;13.858;2024-03-08T07:43:32;98084.75;;;4.65;82.51
36190;BME280;22232;50.914;13.858;2024-03-08T07:46:02;98087.06;;;4.89;81.67
36190;BME280;22232;50.914;13.858;2024-03-08T07:48:30;98088.72;;;4.90;80.46
36190;BME280;22232;50.914;13.858;2024-03-08T07:51:00;98086.59;;;4.86;80.65
36190;BME280;22232;50.914;13.858;2024-03-08T07:53:28;98085.97;;;5.05;80.65
36190;BME280;22232;50.914;13.858;2024-03-08T07:55:55;98088.94;;;5.17;80.28
36190;BME280;22232;50.914;13.858;2024-03-08T07:58:22;98083.50;;;4.60;81.74
36190;BME280;22232;50.914;13.858;2024-03-08T08:00:51;98082.44;;;4.25;86.07
36190;BME280;22232;50.914;13.858;2024-03-08T08:03:18;98088.56;;;4.11;88.58
36190;BME280;22232;50.914;13.858;2024-03-08T08:05:48;98092.00;;;3.97;88.92
36190;BME280;22232;50.914;13.858;2024-03-08T08:08:16;98088.00;;;4.01;87.50
36190;BME280;22232;50.914;13.858;2024-03-08T08:10:44;98088.28;;;4.06;89.02
36190;BME280;22232;50.914;13.858;2024-03-08T08:13:11;98074.16;;;4.28;86.78
36190;BME280;22232;50.914;13.858;2024-03-08T08:15:40;98080.91;;;4.16;89.23
36190;BME280;22232;50.914;13.858;2024-03-08T08:18:07;98085.81;;;4.19;89.76
36190;BME280;22232;50.914;13.858;2024-03-08T08:20:37;98063.88;;;4.33;89.59
36190;BME280;22232;50.914;13.858;2024-03-08T08:23:04;98076.28;;;4.03;90.18
36190;BME280;22232;50.914;13.858;2024-03-08T08:25:32;98078.91;;;4.03;92.28
36190;BME280;22232;50.914;13.858;2024-03-08T08:28:02;98066.06;;;4.15;92.84
36190;BME280;22232;50.914;13.858;2024-03-08T08:30:31;98067.25;;;4.27;94.21
36190;BME280;22232;50.914;13.858;2024-03-08T08:33:00;98064.91;;;4.69;90.95
36190;BME280;22232;50.914;13.858;2024-03-08T08:35:28;98060.25;;;4.92;92.51
36190;BME280;22232;50.914;13.858;2024-03-08T08:37:56;98056.13;;;5.54;85.18
36190;BME280;22232;50.914;13.858;2024-03-08T08:40:26;98059.19;;;5.86;80.05
36190;BME280;22232;50.914;13.858;2024-03-08T08:42:56;98057.97;;;5.88;78.40
36190;BME280;22232;50.914;13.858;2024-03-08T08:45:27;98053.22;;;5.49;80.94
36190;BME280;22232;50.914;13.858;2024-03-08T08:47:54;98054.34;;;5.12;83.67
36190;BME280;22232;50.914;13.858;2024-03-08T08:50:22;98047.91;;;5.21;85.04
36190;BME280;22232;50.914;13.858;2024-03-08T08:52:51;98054.94;;;5.35;83.69
36190;BME280;22232;50.914;13.858;2024-03-08T08:55:19;98041.78;;;5.20;86.58
36190;BME280;22232;50.914;13.858;2024-03-08T08:57:49;98045.97;;;5.58;86.10
36190;BME280;22232;50.914;13.858;2024-03-08T09:00:19;98037.94;;;6.07;78.85
36190;BME280;22232;50.914;13.858;2024-03-08T09:02:47;98042.06;;;6.16;81.67
36190;BME280;22232;50.914;13.858;2024-03-08T09:05:18;98035.91;;;6.03;79.27
36190;BME280;22232;50.914;13.858;2024-03-08T09:07:46;98028.91;;;5.95;80.97
36190;BME280;22232;50.914;13.858;2024-03-08T09:10:13;98020.56;;;6.39;74.07
36190;BME280;22232;50.914;13.858;2024-03-08T09:12:44;98027.28;;;6.42;71.35
36190;BME280;22232;50.914;13.858;2024-03-08T09:15:12;98026.81;;;7.00;70.36
36190;BME280;22232;50.914;13.858;2024-03-08T09:17:40;98024.19;;;7.06;68.30
36190;BME280;22232;50.914;13.858;2024-03-08T09:20:10;98016.44;;;7.25;67.35
36190;BME280;22232;50.914;13.858;2024-03-08T09:22:38;98012.34;;;7.49;66.84
36190;BME280;22232;50.914;13.858;2024-03-08T09:25:08;98012.75;;;7.26;65.90
36190;BME280;22232;50.914;13.858;2024-03-08T09:27:36;98015.00;;;7.35;65.62
36190;BME280;22232;50.914;13.858;2024-03-08T09:30:07;98005.59;;;7.33;64.66
36190;BME280;22232;50.914;13.858;2024-03-08T09:32:35;98000.09;;;7.41;64.76
36190;BME280;22232;50.914;13.858;2024-03-08T09:35:04;97995.59;;;7.55;63.11
36190;BME280;22232;50.914;13.858;2024-03-08T09:37:35;98005.19;;;7.63;64.51
36190;BME280;22232;50.914;13.858;2024-03-08T09:40:03;97996.97;;;7.84;64.64
36190;BME280;22232;50.914;13.858;2024-03-08T09:42:37;98005.34;;;7.74;63.23
36190;BME280;22232;50.914;13.858;2024-03-08T09:45:10;97997.78;;;7.85;62.77
36190;BME280;22232;50.914;13.858;2024-03-08T09:47:42;98001.91;;;7.67;63.20
36190;BME280;22232;50.914;13.858;2024-03-08T09:50:10;98002.06;;;7.92;63.26
36190;BME280;22232;50.914;13.858;2024-03-08T09:52:40;98000.88;;;7.75;62.47
36190;BME280;22232;50.914;13.858;2024-03-08T09:55:09;97996.28;;;8.09;62.74
36190;BME280;22232;50.914;13.858;2024-03-08T09:57:43;97990.78;;;8.03;61.98
36190;BME280;22232;50.914;13.858;2024-03-08T10:00:30;97996.66;;;8.19;62.17
36190;BME280;22232;50.914;13.858;2024-03-08T10:03:01;97989.47;;;8.26;62.86
36190;BME280;22232;50.914;13.858;2024-03-08T10:05:30;97992.94;;;8.26;62.10
36190;BME280;22232;50.914;13.858;2024-03-08T10:07:59;97990.31;;;8.20;64.00
36190;BME280;22232;50.914;13.858;2024-03-08T10:10:27;97986.16;;;8.44;62.71
36190;BME280;22232;50.914;13.858;2024-03-08T10:12:55;97981.69;;;8.31;63.71
36190;BME280;22232;50.914;13.858;2024-03-08T10:15:23;97983.69;;;8.42;62.13
36190;BME280;22232;50.914;13.858;2024-03-08T10:17:51;97979.09;;;8.63;60.26
36190;BME280;22232;50.914;13.858;2024-03-08T10:20:20;97966.06;;;8.86;61.92
36190;BME280;22232;50.914;13.858;2024-03-08T10:22:48;97967.50;;;8.50;61.62
36190;BME280;22232;50.914;13.858;2024-03-08T10:25:34;97966.34;;;8.71;60.99
36190;BME280;22232;50.914;13.858;2024-03-08T10:28:05;97968.28;;;8.89;61.06
36190;BME280;22232;50.914;13.858;2024-03-08T10:30:33;97957.84;;;8.56;60.05
36190;BME280;22232;50.914;13.858;2024-03-08T10:33:01;97964.84;;;8.82;61.71
36190;BME280;22232;50.914;13.858;2024-03-08T10:35:30;97958.94;;;9.05;59.79
36190;BME280;22232;50.914;13.858;2024-03-08T10:38:00;97960.72;;;8.86;60.34
36190;BME280;22232;50.914;13.858;2024-03-08T10:40:30;97957.19;;;8.61;60.13
36190;BME280;22232;50.914;13.858;2024-03-08T10:42:59;97954.88;;;8.33;61.52
36190;BME280;22232;50.914;13.858;2024-03-08T10:45:40;97950.22;;;8.66;61.11
36190;BME280;22232;50.914;13.858;2024-03-08T10:48:29;97954.09;;;8.70;61.19
36190;BME280;22232;50.914;13.858;2024-03-08T10:51:06;97953.44;;;8.75;61.24
36190;BME280;22232;50.914;13.858;2024-03-08T10:53:36;97949.00;;;8.94;60.67
36190;BME280;22232;50.914;13.858;2024-03-08T10:56:04;97955.97;;;8.95;60.66
36190;BME280;22232;50.914;13.858;2024-03-08T10:58:33;97943.97;;;8.86;60.86
36190;BME280;22232;50.914;13.858;2024-03-08T11:01:03;97946.72;;;8.98;61.73
36190;BME280;22232;50.914;13.858;2024-03-08T11:06:08;97938.22;;;8.82;59.79
36190;BME280;22232;50.914;13.858;2024-03-08T11:08:36;97938.78;;;8.66;60.73
36190;BME280;22232;50.914;13.858;2024-03-08T11:11:04;97935.16;;;9.10;59.67
36190;BME280;22232;50.914;13.858;2024-03-08T11:13:36;97928.75;;;8.68;59.63
36190;BME280;22232;50.914;13.858;2024-03-08T11:16:09;97932.09;;;9.07;60.12
36190;BME280;22232;50.914;13.858;2024-03-08T11:18:37;97927.13;;;9.17;58.76
36190;BME280;22232;50.914;13.858;2024-03-08T11:21:08;97920.59;;;9.13;59.34
36190;BME280;22232;50.914;13.858;2024-03-08T11:23:40;97911.69;;;9.01;59.01
36190;BME280;22232;50.914;13.858;2024-03-08T11:26:21;97912.72;;;9.25;60.18
36190;BME280;22232;50.914;13.858;2024-03-08T11:28:50;97911.44;;;9.09;60.03
36190;BME280;22232;50.914;13.858;2024-03-08T11:31:24;97901.78;;;8.64;59.77
36190;BME280;22232;50.914;13.858;2024-03-08T11:33:54;97899.69;;;8.91;61.78
36190;BME280;22232;50.914;13.858;2024-03-08T11:36:23;97901.63;;;9.28;60.38
36190;BME280;22232;50.914;13.858;2024-03-08T11:38:52;97899.50;;;9.36;58.82
36190;BME280;22232;50.914;13.858;2024-03-08T11:41:22;97897.84;;;9.17;57.55
36190;BME280;22232;50.914;13.858;2024-03-08T11:44:03;97886.75;;;9.02;60.36
36190;BME280;22232;50.914;13.858;2024-03-08T11:46:32;97893.44;;;8.86;59.47
36190;BME280;22232;50.914;13.858;2024-03-08T11:49:01;97881.69;;;8.68;60.12
36190;BME280;22232;50.914;13.858;2024-03-08T11:51:29;97871.75;;;8.82;61.04
36190;BME280;22232;50.914;13.858;2024-03-08T11:53:57;97872.59;;;9.26;60.96
36190;BME280;22232;50.914;13.858;2024-03-08T11:56:25;97872.59;;;9.45;58.81
36190;BME280;22232;50.914;13.858;2024-03-08T11:58:54;97874.44;;;9.01;57.37
36190;BME280;22232;50.914;13.858;2024-03-08T12:01:25;97869.53;;;8.79;57.91
36190;BME280;22232;50.914;13.858;2024-03-08T12:03:53;97862.09;;;8.63;60.37
36190;BME280;22232;50.914;13.858;2024-03-08T12:06:22;97858.41;;;8.64;58.89
36190;BME280;22232;50.914;13.858;2024-03-08T12:08:49;97860.09;;;8.58;59.28
36190;BME280;22232;50.914;13.858;2024-03-08T12:11:18;97850.91;;;8.79;60.76
36190;BME280;22232;50.914;13.858;2024-03-08T12:13:51;97847.91;;;8.94;60.80
36190;BME280;22232;50.914;13.858;2024-03-08T12:16:20;97844.63;;;8.99;59.22
36190;BME280;22232;50.914;13.858;2024-03-08T12:18:51;97849.47;;;8.83;59.53
36190;BME280;22232;50.914;13.858;2024-03-08T12:21:19;97845.00;;;8.77;60.24
36190;BME280;22232;50.914;13.858;2024-03-08T12:24:11;97844.78;;;8.79;60.05
36190;BME280;22232;50.914;13.858;2024-03-08T12:26:43;97838.44;;;8.80;60.03
36190;BME280;22232;50.914;13.858;2024-03-08T12:29:19;97835.81;;;8.98;62.60
36190;BME280;22232;50.914;13.858;2024-03-08T12:31:55;97832.22;;;9.11;61.33
36190;BME280;22232;50.914;13.858;2024-03-08T12:34:26;97835.28;;;8.89;60.29
36190;BME280;22232;50.914;13.858;2024-03-08T12:36:55;97826.34;;;8.84;59.92
36190;BME280;22232;50.914;13.858;2024-03-08T12:39:23;97819.66;;;8.75;62.67
36190;BME280;22232;50.914;13.858;2024-03-08T12:41:56;97823.16;;;8.93;59.67
36190;BME280;22232;50.914;13.858;2024-03-08T12:44:27;97817.22;;;8.73;61.47
36190;BME280;22232;50.914;13.858;2024-03-08T12:46:56;97825.53;;;8.83;63.13
36190;BME280;22232;50.914;13.858;2024-03-08T12:49:27;97808.66;;;8.71;62.14
36190;BME280;22232;50.914;13.858;2024-03-08T12:51:54;97815.53;;;8.54;62.47
36190;BME280;22232;50.914;13.858;2024-03-08T12:54:22;97811.00;;;8.79;62.65
36190;BME280;22232;50.914;13.858;2024-03-08T12:56:51;97803.81;;;8.86;64.20
36190;BME280;22232;50.914;13.858;2024-03-08T12:59:22;97805.16;;;9.14;63.29
36190;BME280;22232;50.914;13.858;2024-03-08T13:01:51;97800.94;;;9.25;63.79